Terminal Aerodrome Forecast
Issued by NWS La Crosse, WI

Home | Current Version | Previous Version | Text Only | Print | Product List | Glossary On
Versions: 1 2 3 4 5 6 7 8 9 10 11 12 13 14
000
FTUS43 KARX 261130
TAFRST
TAF
KRST 261130Z 2612/2712 20006KT P6SM BKN250
     FM261700 28011KT P6SM BKN250
     FM262000 32012G20KT P6SM BKN100
     FM270200 32007KT P6SM SCT250
     FM270300 33007KT P6SM SKC=

USA.gov is the U.S. government's official web portal to all federal, state and local government web resources and services.